Date,TemperatureHighF,TemperatureAvgF,TemperatureLowF,DewpointHighF,DewpointAvgF,DewpointLowF,HumidityHigh,HumidityAvg,HumidityLow,PressureMaxIn,PressureMinIn,WindSpeedMaxMPH,WindSpeedAvgMPH,GustSpeedMaxMPH,PrecipitationSumIn
2013-1-19,46.7,46.4,46.2,23.8,23.3,22.4,41,40,39,29.97,29.96,18,15,38,0.04
2013-1-20,52.2,42.4,27.9,31.5,25.9,8.3,70,53,29,29.85,29.49,22,12,66,0.00
2013-1-27,30.9,19.8,11.8,4.0,0.5,-1.3,61,44,26,30.39,30.18,20,7,47,0.00
2013-1-28,30.4,23.1,15.0,25.0,12.3,1.3,93,66,34,30.39,29.94,4,1,21,0.00
2013-1-29,33.1,29.8,25.6,31.8,27.8,23.1,96,92,90,30.12,29.93,2,0,14,0.12
2013-1-30,60.2,47.8,32.7,57.1,46.2,31.9,99,94,85,30.08,29.41,20,7,69,0.12
2013-1-31,60.7,48.0,30.6,58.0,37.3,14.3,93,68,37,29.51,28.91,26,16,86,0.43
2013-2-1,31.5,27.5,21.4,18.5,8.5,2.6,62,45,32,30.02,29.52,18,11,56,0.00
2013-2-2,29.1,24.7,14.3,8.4,5.2,0.6,66,44,36,30.18,30.01,13,6,36,0.00
2013-2-3,27.2,23.7,18.3,20.9,18.2,13.6,87,79,63,29.98,29.68,6,1,24,0.01
2013-2-8,32.1,26.5,17.5,30.6,24.7,14.8,96,93,89,30.07,29.50,24,16,65,0.00
2013-2-9,21.0,18.5,16.4,18.8,16.1,13.5,91,90,88,29.66,29.48,23,17,56,0.00
2013-2-10,31.9,15.5,3.5,27.9,11.8,-1.0,90,85,81,30.33,30.14,18,7,41,0.14
2013-2-14,45.2,35.4,27.2,26.0,21.3,17.7,80,59,34,29.92,29.65,8,2,29,0.00
2013-2-15,51.1,37.3,22.7,33.2,28.5,19.5,95,72,49,29.92,29.84,12,3,38,0.00
2013-2-16,35.5,32.3,29.4,29.9,28.8,27.2,95,87,72,29.87,29.83,8,2,29,0.03
2013-2-20,26.5,25.2,24.8,12.1,11.2,9.0,58,55,47,29.71,29.66,15,11,48,0.00
2013-2-21,34.3,27.5,23.1,14.3,11.9,9.3,62,52,40,29.96,29.70,24,15,65,0.00
2013-7-14,88.9,78.5,71.2,75.2,72.7,70.3,99,84,61,30.27,30.17,0,0,0,0.00
2013-7-15,89.4,79.9,71.5,77.9,73.4,70.6,97,82,59,30.18,30.07,0,0,3,0.00
2013-7-16,92.4,80.6,67.8,73.2,69.8,66.4,96,72,44,30.13,30.07,0,0,7,0.00
2013-7-17,92.5,81.2,70.1,74.9,71.3,68.9,97,74,48,30.14,29.98,0,0,0,0.00
2013-7-18,93.8,83.4,73.9,76.6,73.0,70.3,90,73,47,29.99,29.90,0,0,1,0.00
2013-7-19,91.5,80.5,74.4,77.8,74.7,73.1,97,84,55,29.92,29.68,0,0,2,0.00
2013-7-20,90.7,86.5,76.1,76.8,74.9,72.6,93,69,58,29.71,29.62,0,0,1,9.37
2013-9-29,46.9,46.1,45.7,44.7,44.2,43.8,95,93,91,30.09,30.09,0,0,0,23.46
2013-10-8,66.3,55.9,44.9,55.8,46.6,42.4,95,74,42,30.32,29.87,1,0,18,0.00
2013-10-9,60.0,50.7,43.4,46.3,42.4,39.8,93,75,48,30.40,30.32,6,1,34,0.00
2013-10-10,61.6,51.7,41.5,52.7,47.9,40.4,98,88,70,30.31,30.14,3,0,28,0.00
2013-10-11,70.0,57.4,49.9,56.2,51.2,44.8,98,81,59,30.12,30.05,3,0,23,0.00
2013-10-12,60.1,54.8,50.1,54.9,51.7,47.3,96,90,80,30.34,30.09,6,1,49,0.00
2013-10-13,58.2,51.7,39.9,50.3,46.2,38.0,95,82,66,30.39,30.32,7,1,42,0.00
2013-10-14,64.9,53.3,36.1,47.7,42.6,34.5,94,70,41,30.36,30.21,2,0,19,0.00
2013-11-24,27.6,24.8,20.7,13.0,-1.6,-9.1,71,32,20,29.99,29.78,36,22,78,0.00